FKKN

N'Gaoundéré Airport

N'Gaoundéré, Cameroon
METAR FKKN 271100Z 26004KT 9999 SCT020 27/22 Q1019
Observed Flight Rules
May-27 @ 11:00 UTC (an hour ago) Visual Flight Rules
Wind Visibility Clouds
260° at 4 knots 10,000+ meters
  • Scattered at 2,000' AGL
Temperatures Readings
Current 27°C / 81°F
Dewpoint 22°C / 72°F
Humidity 74%
Altimeter 30.09" Hg
Pressure 1019 hPa
Elevation 1104
METAR FKKN 271100Z 26004KT 9999 SCT020 27/22 Q1019
Observed Flight Rules
May-27 @ 11:00 UTC
(an hour ago)
VFR
Wind Visibility
260° at 4 knots 10,000+ meters
Clouds
  • Scattered at 2,000' AGL
Temperature Dewpoint
27°C / 81°F 22°C / 72°F
Humidity Altimeter Pressure
74% 30.09" Hg 1019 hPa